DNAA/ABV METAR and TAF weather

Enter ICAO airport designator
Station Type Date Time Source
DNAA METAR 2018/07/19 07:00 UTC NOAA

DNAA 190700Z 18003KT 9999 FEW008 24/21 Q1016 NOSIG


Station Type Date Time Source
DNAA Decoded METAR 2018/07/19 07:00 UTC NOAA

Station name not available
Jul 19, 2018 - 03:00 AM EDT / 2018.07.19 0700 UTC
Wind: from the S (180 degrees) at 3 MPH (3 KT):0
Visibility: greater than 7 mile(s):0
Sky conditions: mostly clear
Temperature: 75 F (24 C)
Dew Point: 69 F (21 C)
Relative Humidity: 83%
Pressure (altimeter): 30.00 in. Hg (1016 hPa)
ob: DNAA 190700Z 18003KT 9999 FEW008 24/21 Q1016 NOSIG
cycle: 7

Station Type Date Time Source
DNAA TAF 2018/07/18 18:21 UTC NOAA

TAF TAF DNAA 181530Z 1818/1924 27010KT 9999 TS SCT013 FEW020CB PROB30
TEMPO 1818/1824 08020KT 5000 TSRA BKN008
BECMG 1900/1902 15005KT CAVO


Example: see airport list